Aérodrome :
LOGIN :

S'inscrire | Disclaimer

   EN    FR    IT 

 










Légende :    VFR   VFR Marginal   IFR   IFR Intensif   IFR Très Intensif
Visi : 
Plafond : 
>= 8 km
>= 3000ft
5 à 8 km
1000 à 3000 ft
1500m à 5 km
500 à 1000 ft
800 à 1500m
200 à 500 ft
< 800m
< 200 ft
Symboles :   Orages  Brouillard  Fortes neiges  Fortes précipitations  Vent > 20 kt
SIGMETs :   Divers  Orages  Givrage  Turbulence  Onde Orograph.  Cendres Volcan.







- Altitude de l'aérodrome : 63 ft
- Code IATA : BZM


EHWO - Woensdrecht Airbase

DERNIER METAR :
  • 240025Z AUTO 25005KT 230V290 9999 -RA SCT015CB SCT027 BKN043 14/13 Q1010 WHT

METARs EXPIRÉS :
  • 240012Z AUTO 23006KT 9000 -SHRA FEW015CB BKN049 OVC054 15/13 Q1010 BLU
  • 240003Z AUTO 23006KT 9999 -RA FEW015CB BKN023 BKN051 15/13 Q1010 WHT
  • 232355Z AUTO 23006KT 190V260 9999 DZ FEW015CB SCT060 OVC067 15/13 Q1010 BLU
  • 232340Z AUTO 23007KT 9999 -DZ FEW015CB OVC067 15/12 Q1010 BLU
  • 232332Z AUTO 22007KT 190V250 9999 DZRA FEW015CB SCT019 BKN027 15/12 Q1010 WHT
  • 232325Z AUTO 22007KT 190V250 9999 FEW015CB BKN019 BKN026 OVC068 15/12 Q1010 WHT
  • 232303Z AUTO 21006KT 9999 FEW015CB BKN023 BKN026 OVC044 15/12 Q1011 WHT
  • 232256Z AUTO 21006KT 180V240 9999 FEW015CB SCT024 BKN027 BKN034 15/12 Q1011 WHT
  • 232255Z AUTO 22006KT 190V250 9999 FEW015CB BKN028 BKN034 15/12 Q1011 BLU
  • 232225Z AUTO 21005KT 9999 FEW016CB SCT042 BKN050 15/11 Q1011 BLU
  • 232155Z AUTO 21006KT 180V240 9999 FEW015CB OVC049 16/12 Q1011 BLU

Prévision TAF périmée.
Pas de NOTAMs connus pour ce terrain.



MET'MAP, la Météo Aéronautique d'un coup d'oeil ! - Copyright ORBIFLY Décembre 2007 - Disclaimer

ORBIFLY MET'MAP TEAM :

Programmation & Développement : Alexandra Zaïnal
Conception & Développement : Baudouin d'Aumeries
Co-Programmation & Développement : Marc-Olivier Méhu
Soutien technique & logistique : Manuel Goepfert

Contact : metmap@orbifly.com




SOURCES & CREDITS :

   NOAA